createdAt,value
2019-04-27T00:00:09.337Z,80.58
2019-04-27T00:03:02.024Z,80.47
2019-04-27T00:05:56.307Z,80.81
2019-04-27T00:08:48.707Z,80.62
2019-04-27T00:11:45.447Z,80.83
2019-04-27T00:14:32.937Z,80.95
2019-04-27T00:17:48.647Z,80.83
2019-04-27T00:20:37.928Z,81.05
2019-04-27T00:23:24.604Z,81.52
2019-04-27T00:26:10.554Z,81.37
2019-04-27T00:28:56.763Z,81.04
2019-04-27T00:31:43.534Z,81.37
2019-04-27T00:34:29.824Z,81.31
2019-04-27T00:37:38.143Z,81.39
2019-04-27T00:40:38.890Z,81.30
2019-04-27T00:43:27.768Z,81.39
2019-04-27T00:46:14.204Z,81.49
2019-04-27T00:49:00.490Z,81.30
2019-04-27T00:51:46.501Z,81.05
2019-04-27T00:54:33.989Z,81.07
2019-04-27T00:57:38.484Z,81.01
2019-04-27T01:00:59.626Z,80.55
2019-04-27T01:04:10.826Z,80.35
2019-04-27T01:06:56.987Z,80.02
2019-04-27T01:09:42.997Z,80.21
2019-04-27T01:12:28.958Z,79.99
2019-04-27T01:15:15.374Z,79.63
2019-04-27T01:18:11.695Z,79.71
2019-04-27T01:20:49.422Z,79.91
2019-04-27T01:23:35.878Z,80.07
2019-04-27T01:26:40.072Z,80.08
2019-04-27T01:29:27.052Z,80.29
2019-04-27T01:32:14.943Z,80.35
2019-04-27T01:35:01.193Z,80.67
2019-04-27T01:37:48.743Z,81.03
2019-04-27T01:40:35.042Z,80.97
2019-04-27T01:43:21.187Z,81.06
2019-04-27T01:46:08.766Z,80.73
2019-04-27T01:48:55.513Z,80.87
2019-04-27T01:51:41.808Z,80.79
2019-04-27T01:54:29.095Z,80.99
2019-04-27T01:57:15.014Z,80.55
2019-04-27T02:00:01.233Z,80.36
2019-04-27T02:02:53.211Z,80.33
2019-04-27T02:05:52.875Z,80.23
2019-04-27T02:08:40.348Z,80.07
2019-04-27T02:11:26.317Z,80.13
2019-04-27T02:14:12.504Z,79.94
2019-04-27T02:16:59.542Z,79.80
2019-04-27T02:19:45.887Z,79.88
2019-04-27T02:22:32.098Z,80.11
2019-04-27T02:25:19.253Z,80.11
2019-04-27T02:28:24.586Z,80.16
2019-04-27T02:31:29.580Z,80.15
2019-04-27T02:34:19.980Z,80.04
2019-04-27T02:37:06.336Z,79.89
2019-04-27T02:39:54.983Z,79.76
2019-04-27T02:42:44.047Z,79.28
2019-04-27T02:45:30.376Z,78.86
2019-04-27T02:48:16.798Z,78.67
2019-04-27T02:51:05.473Z,78.52
2019-04-27T02:53:53.274Z,78.26
2019-04-27T02:56:40.526Z,77.78
2019-04-27T02:59:30.029Z,77.71
2019-04-27T03:02:24.075Z,77.84
2019-04-27T03:05:16.593Z,77.56
2019-04-27T03:08:03.006Z,77.65
2019-04-27T03:10:50.410Z,77.62
2019-04-27T03:13:45.296Z,77.82
2019-04-27T03:16:43.503Z,77.86
2019-04-27T03:19:44.154Z,77.86
2019-04-27T03:22:52.474Z,77.91
2019-04-27T03:26:07.614Z,77.60
2019-04-27T03:28:56.268Z,77.46
2019-04-27T03:31:47.328Z,77.69
2019-04-27T03:34:32.401Z,77.51
2019-04-27T03:37:20.287Z,77.40
2019-04-27T03:40:06.589Z,77.80
2019-04-27T03:42:54.985Z,78.04
2019-04-27T03:45:40.912Z,78.10
2019-04-27T03:48:29.412Z,78.18
2019-04-27T03:51:29.790Z,77.86
2019-04-27T03:54:53.047Z,78.04
2019-04-27T03:58:13.678Z,78.08
2019-04-27T04:01:00.100Z,77.94
2019-04-27T04:03:46.441Z,77.45
2019-04-27T04:06:32.500Z,77.58
2019-04-27T04:09:20.606Z,77.08
2019-04-27T04:12:11.467Z,76.88
2019-04-27T04:14:59.881Z,76.61
2019-04-27T04:17:46.392Z,76.41
2019-04-27T04:20:32.520Z,76.55
2019-04-27T04:23:20.476Z,76.40
2019-04-27T04:26:09.755Z,76.63
2019-04-27T04:28:55.057Z,76.21
2019-04-27T04:31:41.343Z,74.95
2019-04-27T04:34:29.725Z,74.49
2019-04-27T04:37:15.568Z,74.20
2019-04-27T04:40:01.603Z,72.69
2019-04-27T04:43:07.398Z,72.17
2019-04-27T04:46:22.520Z,71.30
2019-04-27T04:49:09.438Z,71.09
2019-04-27T04:51:55.391Z,69.99
2019-04-27T04:54:41.499Z,69.41
2019-04-27T04:57:29.813Z,68.05
2019-04-27T05:00:15.700Z,67.09
2019-04-27T05:03:01.538Z,65.98
2019-04-27T05:05:49.902Z,65.48
2019-04-27T05:08:35.969Z,65.60
2019-04-27T05:11:22.162Z,64.39
2019-04-27T05:14:09.900Z,62.91
2019-04-27T05:16:56.161Z,62.01
2019-04-27T05:19:42.931Z,61.75
2019-04-27T05:22:29.620Z,62.05
2019-04-27T05:25:16.074Z,61.91
2019-04-27T05:28:02.031Z,62.11
2019-04-27T05:30:48.902Z,61.87
2019-04-27T05:33:35.494Z,61.66
2019-04-27T05:36:21.460Z,60.90
2019-04-27T05:39:07.559Z,60.12
2019-04-27T05:41:53.909Z,59.75
2019-04-27T05:45:03.375Z,59.58
2019-04-27T05:48:03.592Z,59.91
2019-04-27T05:50:51.463Z,59.71
2019-04-27T05:53:39.515Z,58.91
2019-04-27T05:56:25.942Z,58.69
2019-04-27T05:59:14.555Z,58.60
2019-04-27T06:02:00.204Z,57.46
2019-04-27T06:04:46.545Z,57.83
2019-04-27T06:07:32.768Z,56.82
2019-04-27T06:10:19.808Z,55.23
2019-04-27T06:13:06.134Z,56.82
2019-04-27T06:15:52.179Z,57.62
2019-04-27T06:18:39.186Z,56.69
2019-04-27T06:21:25.298Z,57.08
2019-04-27T06:24:11.450Z,56.47
2019-04-27T06:26:59.526Z,57.67
2019-04-27T06:29:45.679Z,56.94
2019-04-27T06:32:31.788Z,54.77
2019-04-27T06:35:18.646Z,54.70
2019-04-27T06:38:05.075Z,55.18
2019-04-27T06:40:53.338Z,54.87
2019-04-27T06:43:40.611Z,52.82
2019-04-27T06:46:28.767Z,53.96
2019-04-27T06:49:15.213Z,53.29
2019-04-27T06:52:01.373Z,54.91
2019-04-27T06:54:48.563Z,55.25
2019-04-27T06:57:34.670Z,54.85
2019-04-27T07:00:20.837Z,56.26
2019-04-27T07:03:10.278Z,55.04
2019-04-27T07:05:55.028Z,54.91
2019-04-27T07:08:41.236Z,54.27
2019-04-27T07:11:29.249Z,52.76
2019-04-27T07:14:15.547Z,52.22
2019-04-27T07:17:01.633Z,52.86
2019-04-27T07:19:49.673Z,52.45
2019-04-27T07:22:35.907Z,51.91
2019-04-27T07:25:22.097Z,52.07
2019-04-27T07:28:09.153Z,48.52
2019-04-27T07:30:55.672Z,48.52
2019-04-27T07:33:41.885Z,50.64
2019-04-27T07:36:29.017Z,50.89
2019-04-27T07:39:19.244Z,51.41
2019-04-27T07:42:05.398Z,51.98
2019-04-27T07:45:00.403Z,50.82
2019-04-27T07:47:46.373Z,52.03
2019-04-27T07:50:32.648Z,52.20
2019-04-27T07:53:19.364Z,50.52
2019-04-27T07:56:05.788Z,46.44
2019-04-27T07:58:52.172Z,47.92
2019-04-27T08:01:39.264Z,48.78
2019-04-27T08:04:25.523Z,48.17
2019-04-27T08:07:12.063Z,49.92
2019-04-27T08:10:01.120Z,48.96
2019-04-27T08:12:46.082Z,49.09
2019-04-27T08:15:32.413Z,48.28
2019-04-27T08:18:20.818Z,47.38
2019-04-27T08:21:06.757Z,47.52
2019-04-27T08:23:52.983Z,48.97
2019-04-27T08:26:49.975Z,49.18
2019-04-27T08:29:54.597Z,49.71
2019-04-27T08:32:43.517Z,48.70
2019-04-27T08:35:32.807Z,49.60
2019-04-27T08:38:20.624Z,50.60
2019-04-27T08:41:06.843Z,49.60
2019-04-27T08:43:52.842Z,50.93
2019-04-27T08:46:39.070Z,51.16
2019-04-27T08:49:25.348Z,51.73
2019-04-27T08:52:11.237Z,50.80
2019-04-27T08:54:59.275Z,49.35
2019-04-27T08:57:45.448Z,48.28
2019-04-27T09:00:31.563Z,50.32
2019-04-27T09:03:19.300Z,50.18
2019-04-27T09:06:09.147Z,50.00
2019-04-27T09:09:01.673Z,52.21
2019-04-27T09:11:56.009Z,53.21
2019-04-27T09:14:49.509Z,54.73
2019-04-27T09:17:39.704Z,56.03
2019-04-27T09:20:51.719Z,54.15
2019-04-27T09:23:38.862Z,53.09
2019-04-27T09:26:25.428Z,53.13
2019-04-27T09:29:11.616Z,55.29
2019-04-27T09:32:01.509Z,54.92
2019-04-27T09:34:46.663Z,56.11
2019-04-27T09:37:33.307Z,56.04
2019-04-27T09:40:19.568Z,55.74
2019-04-27T09:43:07.469Z,53.87
2019-04-27T09:45:55.627Z,54.72
2019-04-27T09:48:41.838Z,55.24
2019-04-27T09:51:27.965Z,56.96
2019-04-27T09:54:15.951Z,59.47
2019-04-27T09:57:02.403Z,63.03
2019-04-27T09:59:48.473Z,64.31
2019-04-27T10:02:36.521Z,64.33
2019-04-27T10:05:23.043Z,63.74
2019-04-27T10:08:09.193Z,65.97
2019-04-27T10:10:56.709Z,66.00
2019-04-27T10:13:43.312Z,66.27
2019-04-27T10:16:29.403Z,67.04
2019-04-27T10:19:27.876Z,68.68
2019-04-27T10:22:03.715Z,67.67
2019-04-27T10:24:51.147Z,68.90
2019-04-27T10:27:37.392Z,68.55
2019-04-27T10:30:23.570Z,68.14
2019-04-27T10:33:09.703Z,67.13
2019-04-27T10:35:56.568Z,66.34
2019-04-27T10:38:42.855Z,67.78
2019-04-27T10:41:28.964Z,69.77
2019-04-27T10:44:16.257Z,71.91
2019-04-27T10:47:02.913Z,71.35
2019-04-27T10:49:48.964Z,73.63
2019-04-27T10:52:35.298Z,73.58
2019-04-27T10:55:21.354Z,73.93
2019-04-27T10:58:07.533Z,73.65
2019-04-27T11:00:56.486Z,73.84
2019-04-27T11:04:02.307Z,72.16
2019-04-27T11:06:57.741Z,71.74
2019-04-27T11:09:43.989Z,73.50
2019-04-27T11:12:30.219Z,73.41
2019-04-27T11:15:17.264Z,74.83
2019-04-27T11:18:03.908Z,74.82
2019-04-27T11:20:49.904Z,75.56
2019-04-27T11:23:36.079Z,73.35
2019-04-27T11:26:22.317Z,74.51
2019-04-27T11:29:08.301Z,74.59
2019-04-27T11:31:55.610Z,74.02
2019-04-27T11:35:00.361Z,72.93
2019-04-27T11:37:46.761Z,75.33
2019-04-27T11:40:32.826Z,74.82
2019-04-27T11:43:19.294Z,77.20
2019-04-27T11:46:06.161Z,76.34
2019-04-27T11:48:53.395Z,76.12
2019-04-27T11:51:39.956Z,77.90
2019-04-27T11:54:27.682Z,79.61
2019-04-27T11:57:14.079Z,77.80
2019-04-27T12:00:00.541Z,77.29
2019-04-27T12:02:46.561Z,76.94
2019-04-27T12:05:32.696Z,76.37
2019-04-27T12:08:19.101Z,77.88
2019-04-27T12:11:05.939Z,77.29
2019-04-27T12:13:52.395Z,77.42
2019-04-27T12:16:38.928Z,77.83
2019-04-27T12:19:26.800Z,79.62
2019-04-27T12:22:13.291Z,76.53
2019-04-27T12:24:59.410Z,78.13
2019-04-27T12:28:03.714Z,77.34
2019-04-27T12:31:12.471Z,78.21
2019-04-27T12:33:58.633Z,79.15
2019-04-27T12:36:45.929Z,78.49
2019-04-27T12:39:32.600Z,78.05
2019-04-27T12:42:21.000Z,78.92
2019-04-27T12:45:07.081Z,79.59
2019-04-27T12:47:53.541Z,81.91
2019-04-27T12:50:39.843Z,81.85
2019-04-27T12:53:52.917Z,83.71
2019-04-27T12:56:58.862Z,84.67
2019-04-27T12:59:57.291Z,84.63
2019-04-27T13:02:43.972Z,84.91
2019-04-27T13:05:29.996Z,86.47
2019-04-27T13:08:16.151Z,86.10
2019-04-27T13:11:02.486Z,84.51
2019-04-27T13:13:48.641Z,81.79
2019-04-27T13:16:34.696Z,81.85
2019-04-27T13:19:20.992Z,81.99
2019-04-27T13:22:07.591Z,83.30
2019-04-27T13:24:53.756Z,85.35
2019-04-27T13:27:40.030Z,85.74
2019-04-27T13:30:26.261Z,84.97
2019-04-27T13:33:12.482Z,84.55
2019-04-27T13:35:58.651Z,84.66
2019-04-27T13:38:46.566Z,84.53
2019-04-27T13:41:33.035Z,84.80
2019-04-27T13:44:19.688Z,84.23
2019-04-27T13:47:22.496Z,84.05
2019-04-27T13:50:28.391Z,83.08
2019-04-27T13:53:16.649Z,84.30
2019-04-27T13:56:14.183Z,83.97
2019-04-27T13:59:01.137Z,83.34
2019-04-27T14:01:47.646Z,82.28
2019-04-27T14:04:34.191Z,82.44
2019-04-27T14:07:20.701Z,82.86
2019-04-27T14:10:07.051Z,82.31
2019-04-27T14:12:53.571Z,81.81
2019-04-27T14:15:40.236Z,82.05
2019-04-27T14:18:26.771Z,81.51
2019-04-27T14:21:12.897Z,81.66
2019-04-27T14:23:59.806Z,82.53
2019-04-27T14:26:48.440Z,81.24
2019-04-27T14:29:34.417Z,81.01
2019-04-27T14:32:20.717Z,82.39
2019-04-27T14:35:08.431Z,81.73
2019-04-27T14:37:54.986Z,80.44
2019-04-27T14:40:41.266Z,80.55
2019-04-27T14:43:28.617Z,80.35
2019-04-27T14:46:15.581Z,78.52
2019-04-27T14:49:02.036Z,80.79
2019-04-27T14:51:50.980Z,80.31
2019-04-27T14:54:47.406Z,79.77
2019-04-27T14:57:25.491Z,80.36
2019-04-27T15:00:14.093Z,80.19
2019-04-27T15:03:00.671Z,79.62
2019-04-27T15:05:49.608Z,79.58
2019-04-27T15:08:38.365Z,81.02
2019-04-27T15:11:24.011Z,80.01
2019-04-27T15:14:10.146Z,81.31
2019-04-27T15:16:56.579Z,79.67
2019-04-27T15:19:48.524Z,81.41
2019-04-27T15:22:36.550Z,81.54
2019-04-27T15:25:23.105Z,81.41
2019-04-27T15:28:15.190Z,82.90
2019-04-27T15:31:26.215Z,81.63
2019-04-27T15:34:28.887Z,81.12
2019-04-27T15:37:39.206Z,80.94
2019-04-27T15:40:59.341Z,80.48
2019-04-27T15:43:48.526Z,79.89
2019-04-27T15:46:35.323Z,80.56
2019-04-27T15:49:22.047Z,80.48
2019-04-27T15:52:09.129Z,80.86
2019-04-27T15:54:55.856Z,81.63
2019-04-27T15:57:46.729Z,79.67
2019-04-27T16:00:30.761Z,81.76
2019-04-27T16:03:18.413Z,81.27
2019-04-27T16:06:08.147Z,83.05
2019-04-27T16:08:53.981Z,83.09
2019-04-27T16:11:40.446Z,83.33
2019-04-27T16:14:28.916Z,83.31
2019-04-27T16:17:15.711Z,82.98
2019-04-27T16:20:02.431Z,82.95
2019-04-27T16:22:48.941Z,82.75
2019-04-27T16:25:46.109Z,82.42
2019-04-27T16:28:24.536Z,81.36
2019-04-27T16:31:10.776Z,81.66
2019-04-27T16:33:59.152Z,81.14
2019-04-27T16:36:45.732Z,82.56
2019-04-27T16:39:32.251Z,81.88
2019-04-27T16:42:19.040Z,81.71
2019-04-27T16:45:06.172Z,80.07
2019-04-27T16:47:56.594Z,80.37
2019-04-27T16:50:40.776Z,79.67
2019-04-27T16:53:30.117Z,78.56
2019-04-27T16:56:18.611Z,79.42
2019-04-27T16:59:25.911Z,78.54
2019-04-27T17:01:53.043Z,77.73
2019-04-27T17:04:39.865Z,79.27
2019-04-27T17:07:29.979Z,79.65
2019-04-27T17:10:16.438Z,79.98
2019-04-27T17:13:06.307Z,80.12
2019-04-27T17:16:03.997Z,79.84
2019-04-27T17:18:59.051Z,81.13
2019-04-27T17:21:42.372Z,80.58
2019-04-27T17:24:37.389Z,80.69
2019-04-27T17:27:31.780Z,81.53
2019-04-27T17:30:18.986Z,80.44
2019-04-27T17:33:28.687Z,81.06
2019-04-27T17:36:16.316Z,80.70
2019-04-27T17:39:05.987Z,80.65
2019-04-27T17:41:52.930Z,80.83
2019-04-27T17:44:39.876Z,80.07
2019-04-27T17:47:29.721Z,79.39
2019-04-27T17:50:18.425Z,79.72
2019-04-27T17:53:03.626Z,79.39
2019-04-27T17:55:50.132Z,78.10
2019-04-27T17:58:39.870Z,77.69
2019-04-27T18:01:30.203Z,78.71
2019-04-27T18:04:14.151Z,78.41
2019-04-27T18:10:13.318Z,78.57
2019-04-27T18:12:58.407Z,78.44
2019-04-27T18:15:45.746Z,78.12
2019-04-27T18:19:08.403Z,78.72
2019-04-27T18:22:01.181Z,79.09
2019-04-27T18:24:55.668Z,78.24
2019-04-27T18:28:08.095Z,78.78
2019-04-27T18:31:15.964Z,77.67
2019-04-27T18:34:00.851Z,78.61
2019-04-27T18:36:47.951Z,79.52
2019-04-27T18:39:34.532Z,79.04
2019-04-27T18:42:23.282Z,78.55
2019-04-27T18:45:10.702Z,78.01
2019-04-27T18:48:02.096Z,77.66
2019-04-27T18:51:20.699Z,77.05
2019-04-27T18:54:05.700Z,78.24
2019-04-27T18:57:01.996Z,78.72
2019-04-27T18:59:40.791Z,78.67
2019-04-27T19:02:28.810Z,78.61
2019-04-27T19:05:15.792Z,78.82
2019-04-27T19:08:02.576Z,78.90
2019-04-27T19:10:49.412Z,78.97
2019-04-27T19:13:36.071Z,79.89
2019-04-27T19:16:22.997Z,79.72
2019-04-27T19:19:11.563Z,79.60
2019-04-27T19:21:58.923Z,79.63
2019-04-27T19:24:45.257Z,80.59
2019-04-27T19:27:50.093Z,80.96
2019-04-27T19:30:40.862Z,82.07
2019-04-27T19:33:29.116Z,81.64
2019-04-27T19:36:15.332Z,81.68
2019-04-27T19:39:01.517Z,81.99
2019-04-27T19:41:57.930Z,81.30
2019-04-27T19:44:35.627Z,81.54
2019-04-27T19:47:21.795Z,81.33
2019-04-27T19:50:07.871Z,80.75
2019-04-27T19:52:54.722Z,81.10
2019-04-27T19:55:42.906Z,81.04
2019-04-27T19:58:32.887Z,81.41
2019-04-27T20:01:29.755Z,81.44
2019-04-27T20:04:22.841Z,81.52
2019-04-27T20:07:10.661Z,81.67
2019-04-27T20:10:00.942Z,81.84
2019-04-27T20:12:46.861Z,81.84
2019-04-27T20:15:32.852Z,81.38
2019-04-27T20:18:20.791Z,81.59
2019-04-27T20:21:07.032Z,81.40
2019-04-27T20:23:54.743Z,81.48
2019-04-27T20:26:41.611Z,81.41
2019-04-27T20:29:27.630Z,81.09
2019-04-27T20:32:13.741Z,81.38
2019-04-27T20:35:01.453Z,81.50
2019-04-27T20:37:47.811Z,80.88
2019-04-27T20:40:33.980Z,81.76
2019-04-27T20:43:21.394Z,81.66
2019-04-27T20:46:07.521Z,81.38
2019-04-27T20:48:53.787Z,81.56
2019-04-27T20:52:17.546Z,81.51
2019-04-27T20:55:04.212Z,81.69
2019-04-27T20:57:59.601Z,81.76
2019-04-27T21:00:38.721Z,82.27
2019-04-27T21:03:33.067Z,82.68
2019-04-27T21:06:28.351Z,83.54
2019-04-27T21:09:16.266Z,83.89
2019-04-27T21:12:02.697Z,83.97
2019-04-27T21:14:48.977Z,84.79
2019-04-27T21:17:34.901Z,84.26
2019-04-27T21:20:21.923Z,84.46
2019-04-27T21:23:08.542Z,83.90
2019-04-27T21:25:54.462Z,84.22
2019-04-27T21:28:43.004Z,84.46
2019-04-27T21:31:28.782Z,85.12
2019-04-27T21:34:14.981Z,84.63
2019-04-27T21:37:01.261Z,84.44
2019-04-27T21:39:47.397Z,84.85
2019-04-27T21:42:33.456Z,84.53
2019-04-27T21:45:21.844Z,84.08
2019-04-27T21:48:08.026Z,84.44
2019-04-27T21:50:54.328Z,84.16
2019-04-27T21:53:54.770Z,83.75
2019-04-27T21:56:43.997Z,83.26
2019-04-27T21:59:30.027Z,82.90
2019-04-27T22:02:18.555Z,82.48
2019-04-27T22:05:05.626Z,82.93
2019-04-27T22:07:54.562Z,83.58
2019-04-27T22:10:40.866Z,83.21
2019-04-27T22:13:32.720Z,83.20
2019-04-27T22:16:21.117Z,83.70
2019-04-27T22:19:07.923Z,83.23
2019-04-27T22:21:53.947Z,83.24
2019-04-27T22:24:42.784Z,83.46
2019-04-27T22:27:28.026Z,83.55
2019-04-27T22:30:14.480Z,83.29
2019-04-27T22:33:01.440Z,83.78
2019-04-27T22:35:47.816Z,83.25
2019-04-27T22:38:34.251Z,83.53
2019-04-27T22:41:42.927Z,82.77
2019-04-27T22:44:34.661Z,82.94
2019-04-27T22:47:22.076Z,82.57
2019-04-27T22:50:08.407Z,82.28
2019-04-27T22:52:54.891Z,82.36
2019-04-27T22:56:00.612Z,81.94
2019-04-27T22:59:00.530Z,81.78
2019-04-27T23:02:11.538Z,81.68
2019-04-27T23:04:59.601Z,81.49
2019-04-27T23:07:45.607Z,81.70
2019-04-27T23:10:31.826Z,81.35
2019-04-27T23:13:17.931Z,81.59
2019-04-27T23:16:06.610Z,81.95
2019-04-27T23:18:52.804Z,81.95
2019-04-27T23:21:38.982Z,82.46
2019-04-27T23:24:24.977Z,82.60
2019-04-27T23:27:11.182Z,83.14
2019-04-27T23:29:57.171Z,83.35
2019-04-27T23:32:47.752Z,83.22
2019-04-27T23:35:33.683Z,83.35
2019-04-27T23:38:20.947Z,83.58
2019-04-27T23:41:06.946Z,83.85
2019-04-27T23:43:53.236Z,83.80
2019-04-27T23:46:39.495Z,83.82
2019-04-27T23:49:25.226Z,83.76
2019-04-27T23:52:16.391Z,83.92
2019-04-27T23:55:02.383Z,83.90
2019-04-27T23:57:48.817Z,83.84
